sensor_id;sensor_type;location;lat;lon;timestamp;P1;durP1;ratioP1;P2;durP2;ratioP2
64820;SDS011;51256;55.654;37.264;2022-11-23T00:00:55;15.30;;;6.88;;
64820;SDS011;51256;55.654;37.264;2022-11-23T00:03:20;15.02;;;6.60;;
64820;SDS011;51256;55.654;37.264;2022-11-23T00:05:46;15.60;;;6.88;;
64820;SDS011;51256;55.654;37.264;2022-11-23T00:08:11;21.75;;;7.50;;
64820;SDS011;51256;55.654;37.264;2022-11-23T00:10:36;19.00;;;6.80;;
64820;SDS011;51256;55.654;37.264;2022-11-23T00:13:02;19.27;;;7.25;;
64820;SDS011;51256;55.654;37.264;2022-11-23T00:15:28;19.90;;;7.93;;
64820;SDS011;51256;55.654;37.264;2022-11-23T00:17:53;22.70;;;8.85;;
64820;SDS011;51256;55.654;37.264;2022-11-23T00:20:18;23.05;;;9.15;;
64820;SDS011;51256;55.654;37.264;2022-11-23T00:22:44;24.88;;;8.43;;
64820;SDS011;51256;55.654;37.264;2022-11-23T00:25:09;27.25;;;8.90;;
64820;SDS011;51256;55.654;37.264;2022-11-23T00:27:35;27.48;;;9.43;;
64820;SDS011;51256;55.654;37.264;2022-11-23T00:30:00;26.40;;;9.25;;
64820;SDS011;51256;55.654;37.264;2022-11-23T00:32:27;26.80;;;9.20;;
64820;SDS011;51256;55.654;37.264;2022-11-23T00:34:53;26.55;;;9.60;;
64820;SDS011;51256;55.654;37.264;2022-11-23T00:37:19;23.48;;;8.88;;
64820;SDS011;51256;55.654;37.264;2022-11-23T00:39:44;29.05;;;8.18;;
64820;SDS011;51256;55.654;37.264;2022-11-23T00:42:10;24.58;;;8.38;;
64820;SDS011;51256;55.654;37.264;2022-11-23T00:44:35;23.55;;;8.48;;
64820;SDS011;51256;55.654;37.264;2022-11-23T00:47:01;23.40;;;8.98;;
64820;SDS011;51256;55.654;37.264;2022-11-23T00:49:26;28.98;;;10.45;;
64820;SDS011;51256;55.654;37.264;2022-11-23T00:51:52;25.88;;;8.13;;
64820;SDS011;51256;55.654;37.264;2022-11-23T00:54:17;29.77;;;8.40;;
64820;SDS011;51256;55.654;37.264;2022-11-23T00:56:43;24.45;;;7.22;;
64820;SDS011;51256;55.654;37.264;2022-11-23T00:59:08;23.67;;;7.63;;
64820;SDS011;51256;55.654;37.264;2022-11-23T01:01:34;32.95;;;8.07;;
64820;SDS011;51256;55.654;37.264;2022-11-23T01:04:05;26.17;;;7.47;;
64820;SDS011;51256;55.654;37.264;2022-11-23T01:06:34;33.45;;;7.55;;
64820;SDS011;51256;55.654;37.264;2022-11-23T01:09:11;34.03;;;8.52;;
64820;SDS011;51256;55.654;37.264;2022-11-23T01:11:40;27.45;;;7.20;;
64820;SDS011;51256;55.654;37.264;2022-11-23T01:14:05;29.33;;;8.35;;
64820;SDS011;51256;55.654;37.264;2022-11-23T01:16:35;30.13;;;8.30;;
64820;SDS011;51256;55.654;37.264;2022-11-23T01:19:03;34.25;;;7.90;;
64820;SDS011;51256;55.654;37.264;2022-11-23T01:21:31;31.17;;;8.48;;
64820;SDS011;51256;55.654;37.264;2022-11-23T01:23:58;89.97;;;9.30;;
64820;SDS011;51256;55.654;37.264;2022-11-23T01:26:24;50.35;;;8.30;;
64820;SDS011;51256;55.654;37.264;2022-11-23T01:28:50;70.18;;;8.98;;
64820;SDS011;51256;55.654;37.264;2022-11-23T01:31:17;40.78;;;9.85;;
64820;SDS011;51256;55.654;37.264;2022-11-23T01:33:44;96.35;;;10.60;;
64820;SDS011;51256;55.654;37.264;2022-11-23T01:36:10;55.13;;;10.25;;
64820;SDS011;51256;55.654;37.264;2022-11-23T01:38:37;87.22;;;9.60;;
64820;SDS011;51256;55.654;37.264;2022-11-23T01:41:04;39.60;;;9.27;;
64820;SDS011;51256;55.654;37.264;2022-11-23T01:43:31;50.22;;;8.38;;
64820;SDS011;51256;55.654;37.264;2022-11-23T01:45:57;44.70;;;8.73;;
64820;SDS011;51256;55.654;37.264;2022-11-23T01:48:25;47.13;;;8.48;;
64820;SDS011;51256;55.654;37.264;2022-11-23T01:53:20;34.20;;;8.82;;
64820;SDS011;51256;55.654;37.264;2022-11-23T01:55:46;27.48;;;8.20;;
64820;SDS011;51256;55.654;37.264;2022-11-23T01:58:14;32.15;;;7.85;;
64820;SDS011;51256;55.654;37.264;2022-11-23T02:00:42;42.22;;;8.18;;
64820;SDS011;51256;55.654;37.264;2022-11-23T02:03:09;30.13;;;7.80;;
64820;SDS011;51256;55.654;37.264;2022-11-23T02:05:43;30.10;;;7.78;;
64820;SDS011;51256;55.654;37.264;2022-11-23T02:08:13;50.25;;;8.25;;
64820;SDS011;51256;55.654;37.264;2022-11-23T02:10:40;39.70;;;8.80;;
64820;SDS011;51256;55.654;37.264;2022-11-23T02:13:07;26.83;;;7.07;;
64820;SDS011;51256;55.654;37.264;2022-11-23T02:15:35;21.90;;;6.65;;
64820;SDS011;51256;55.654;37.264;2022-11-23T02:18:02;24.05;;;6.88;;
64820;SDS011;51256;55.654;37.264;2022-11-23T02:20:31;28.98;;;7.70;;
64820;SDS011;51256;55.654;37.264;2022-11-23T02:28:16;25.35;;;7.57;;
64820;SDS011;51256;55.654;37.264;2022-11-23T02:30:46;29.17;;;7.97;;
64820;SDS011;51256;55.654;37.264;2022-11-23T02:33:14;25.77;;;8.05;;
64820;SDS011;51256;55.654;37.264;2022-11-23T02:35:49;24.58;;;7.97;;
64820;SDS011;51256;55.654;37.264;2022-11-23T02:38:19;23.23;;;7.40;;
64820;SDS011;51256;55.654;37.264;2022-11-23T02:40:46;24.55;;;7.78;;
64820;SDS011;51256;55.654;37.264;2022-11-23T02:43:12;23.33;;;7.60;;
64820;SDS011;51256;55.654;37.264;2022-11-23T02:45:46;18.83;;;6.47;;
64820;SDS011;51256;55.654;37.264;2022-11-23T02:48:16;21.30;;;6.78;;
64820;SDS011;51256;55.654;37.264;2022-11-23T02:50:42;20.77;;;7.80;;
64820;SDS011;51256;55.654;37.264;2022-11-23T02:53:07;25.92;;;7.70;;
64820;SDS011;51256;55.654;37.264;2022-11-23T02:55:33;25.65;;;7.43;;
64820;SDS011;51256;55.654;37.264;2022-11-23T02:57:59;26.67;;;8.15;;
64820;SDS011;51256;55.654;37.264;2022-11-23T03:00:24;26.88;;;8.27;;
64820;SDS011;51256;55.654;37.264;2022-11-23T03:02:50;18.80;;;7.63;;
64820;SDS011;51256;55.654;37.264;2022-11-23T03:05:15;18.70;;;7.00;;
64820;SDS011;51256;55.654;37.264;2022-11-23T03:07:41;25.10;;;8.90;;
64820;SDS011;51256;55.654;37.264;2022-11-23T03:10:06;29.83;;;9.23;;
64820;SDS011;51256;55.654;37.264;2022-11-23T03:12:32;24.85;;;8.48;;
64820;SDS011;51256;55.654;37.264;2022-11-23T03:14:58;27.00;;;8.32;;
64820;SDS011;51256;55.654;37.264;2022-11-23T03:17:23;24.48;;;8.57;;
64820;SDS011;51256;55.654;37.264;2022-11-23T03:19:49;27.23;;;8.90;;
64820;SDS011;51256;55.654;37.264;2022-11-23T03:22:14;25.63;;;8.30;;
64820;SDS011;51256;55.654;37.264;2022-11-23T03:24:40;23.98;;;8.57;;
64820;SDS011;51256;55.654;37.264;2022-11-23T03:27:05;20.75;;;7.82;;
64820;SDS011;51256;55.654;37.264;2022-11-23T03:29:31;20.58;;;7.85;;
64820;SDS011;51256;55.654;37.264;2022-11-23T03:31:56;23.30;;;7.80;;
64820;SDS011;51256;55.654;37.264;2022-11-23T03:34:22;18.13;;;7.20;;
64820;SDS011;51256;55.654;37.264;2022-11-23T03:36:47;19.63;;;7.63;;
64820;SDS011;51256;55.654;37.264;2022-11-23T03:39:13;26.35;;;8.00;;
64820;SDS011;51256;55.654;37.264;2022-11-23T03:41:38;21.48;;;8.27;;
64820;SDS011;51256;55.654;37.264;2022-11-23T03:44:04;27.10;;;8.38;;
64820;SDS011;51256;55.654;37.264;2022-11-23T03:46:29;24.17;;;9.52;;
64820;SDS011;51256;55.654;37.264;2022-11-23T03:48:55;29.05;;;9.48;;
64820;SDS011;51256;55.654;37.264;2022-11-23T03:51:21;27.38;;;9.27;;
64820;SDS011;51256;55.654;37.264;2022-11-23T03:53:47;24.17;;;9.18;;
64820;SDS011;51256;55.654;37.264;2022-11-23T03:56:13;25.70;;;9.02;;
64820;SDS011;51256;55.654;37.264;2022-11-23T03:58:39;28.35;;;9.15;;
64820;SDS011;51256;55.654;37.264;2022-11-23T04:01:04;20.23;;;8.43;;
64820;SDS011;51256;55.654;37.264;2022-11-23T04:03:30;20.00;;;8.05;;
64820;SDS011;51256;55.654;37.264;2022-11-23T04:05:55;22.55;;;8.50;;
64820;SDS011;51256;55.654;37.264;2022-11-23T04:08:21;20.42;;;7.60;;
64820;SDS011;51256;55.654;37.264;2022-11-23T04:10:46;21.67;;;7.75;;
64820;SDS011;51256;55.654;37.264;2022-11-23T04:13:11;17.42;;;6.90;;
64820;SDS011;51256;55.654;37.264;2022-11-23T04:15:37;14.48;;;5.78;;
64820;SDS011;51256;55.654;37.264;2022-11-23T04:18:02;14.65;;;5.82;;
64820;SDS011;51256;55.654;37.264;2022-11-23T04:20:28;16.58;;;5.72;;
64820;SDS011;51256;55.654;37.264;2022-11-23T04:22:53;10.15;;;4.93;;
64820;SDS011;51256;55.654;37.264;2022-11-23T04:25:19;14.10;;;6.10;;
64820;SDS011;51256;55.654;37.264;2022-11-23T04:27:44;13.48;;;5.93;;
64820;SDS011;51256;55.654;37.264;2022-11-23T04:30:10;14.93;;;6.32;;
64820;SDS011;51256;55.654;37.264;2022-11-23T04:32:36;15.13;;;6.07;;
64820;SDS011;51256;55.654;37.264;2022-11-23T04:35:02;16.10;;;6.75;;
64820;SDS011;51256;55.654;37.264;2022-11-23T04:37:28;17.20;;;6.70;;
64820;SDS011;51256;55.654;37.264;2022-11-23T04:39:53;11.95;;;5.50;;
64820;SDS011;51256;55.654;37.264;2022-11-23T04:42:19;20.35;;;7.00;;
64820;SDS011;51256;55.654;37.264;2022-11-23T04:44:44;16.27;;;6.50;;
64820;SDS011;51256;55.654;37.264;2022-11-23T04:47:10;12.75;;;5.70;;
64820;SDS011;51256;55.654;37.264;2022-11-23T04:49:36;13.75;;;5.95;;
64820;SDS011;51256;55.654;37.264;2022-11-23T04:52:02;15.60;;;5.13;;
64820;SDS011;51256;55.654;37.264;2022-11-23T04:54:28;18.73;;;6.45;;
64820;SDS011;51256;55.654;37.264;2022-11-23T04:56:53;19.13;;;6.55;;
64820;SDS011;51256;55.654;37.264;2022-11-23T04:59:20;17.30;;;7.72;;
64820;SDS011;51256;55.654;37.264;2022-11-23T05:01:46;18.95;;;7.45;;
64820;SDS011;51256;55.654;37.264;2022-11-23T05:04:11;19.35;;;7.75;;
64820;SDS011;51256;55.654;37.264;2022-11-23T05:06:37;15.57;;;6.60;;
64820;SDS011;51256;55.654;37.264;2022-11-23T05:09:02;16.38;;;6.18;;
64820;SDS011;51256;55.654;37.264;2022-11-23T05:11:28;17.45;;;7.10;;
64820;SDS011;51256;55.654;37.264;2022-11-23T05:13:53;15.55;;;6.63;;
64820;SDS011;51256;55.654;37.264;2022-11-23T05:16:18;15.45;;;6.35;;
64820;SDS011;51256;55.654;37.264;2022-11-23T05:18:44;19.20;;;6.80;;
64820;SDS011;51256;55.654;37.264;2022-11-23T05:21:09;17.02;;;6.50;;
64820;SDS011;51256;55.654;37.264;2022-11-23T05:23:35;13.00;;;6.38;;
64820;SDS011;51256;55.654;37.264;2022-11-23T05:26:00;17.40;;;6.05;;
64820;SDS011;51256;55.654;37.264;2022-11-23T05:28:26;15.48;;;6.40;;
64820;SDS011;51256;55.654;37.264;2022-11-23T05:30:51;13.50;;;6.15;;
64820;SDS011;51256;55.654;37.264;2022-11-23T05:33:17;17.75;;;5.57;;
64820;SDS011;51256;55.654;37.264;2022-11-23T05:35:43;15.63;;;5.68;;
64820;SDS011;51256;55.654;37.264;2022-11-23T05:38:08;12.63;;;5.13;;
64820;SDS011;51256;55.654;37.264;2022-11-23T05:40:34;14.02;;;5.40;;
64820;SDS011;51256;55.654;37.264;2022-11-23T05:42:59;15.40;;;5.97;;
64820;SDS011;51256;55.654;37.264;2022-11-23T05:45:25;14.70;;;5.90;;
64820;SDS011;51256;55.654;37.264;2022-11-23T05:47:51;18.90;;;6.13;;
64820;SDS011;51256;55.654;37.264;2022-11-23T05:50:18;11.23;;;5.38;;
64820;SDS011;51256;55.654;37.264;2022-11-23T05:52:45;14.38;;;5.32;;
64820;SDS011;51256;55.654;37.264;2022-11-23T05:55:10;11.48;;;5.35;;
64820;SDS011;51256;55.654;37.264;2022-11-23T05:57:36;10.40;;;5.22;;
64820;SDS011;51256;55.654;37.264;2022-11-23T06:00:03;9.63;;;4.82;;
64820;SDS011;51256;55.654;37.264;2022-11-23T06:02:29;14.23;;;5.22;;
64820;SDS011;51256;55.654;37.264;2022-11-23T06:04:55;11.57;;;4.80;;
64820;SDS011;51256;55.654;37.264;2022-11-23T06:07:20;14.13;;;5.68;;
64820;SDS011;51256;55.654;37.264;2022-11-23T06:09:46;12.68;;;5.60;;
64820;SDS011;51256;55.654;37.264;2022-11-23T06:12:11;11.48;;;5.75;;
64820;SDS011;51256;55.654;37.264;2022-11-23T06:14:37;15.15;;;5.38;;
64820;SDS011;51256;55.654;37.264;2022-11-23T06:17:02;12.45;;;5.53;;
64820;SDS011;51256;55.654;37.264;2022-11-23T06:19:28;13.52;;;5.60;;
64820;SDS011;51256;55.654;37.264;2022-11-23T06:21:57;13.23;;;6.03;;
64820;SDS011;51256;55.654;37.264;2022-11-23T06:24:23;12.52;;;6.60;;
64820;SDS011;51256;55.654;37.264;2022-11-23T06:26:49;14.50;;;6.35;;
64820;SDS011;51256;55.654;37.264;2022-11-23T06:29:21;13.57;;;6.00;;
64820;SDS011;51256;55.654;37.264;2022-11-23T06:31:46;16.20;;;6.53;;
64820;SDS011;51256;55.654;37.264;2022-11-23T06:34:12;21.58;;;7.82;;
64820;SDS011;51256;55.654;37.264;2022-11-23T06:36:37;19.02;;;6.22;;
64820;SDS011;51256;55.654;37.264;2022-11-23T06:39:03;21.63;;;8.38;;
64820;SDS011;51256;55.654;37.264;2022-11-23T06:41:29;19.40;;;8.18;;
64820;SDS011;51256;55.654;37.264;2022-11-23T06:43:54;27.35;;;9.63;;
64820;SDS011;51256;55.654;37.264;2022-11-23T06:46:20;26.80;;;9.38;;
64820;SDS011;51256;55.654;37.264;2022-11-23T06:48:45;28.55;;;9.07;;
64820;SDS011;51256;55.654;37.264;2022-11-23T06:51:12;29.08;;;9.95;;
64820;SDS011;51256;55.654;37.264;2022-11-23T06:53:38;35.90;;;11.40;;
64820;SDS011;51256;55.654;37.264;2022-11-23T06:56:06;38.40;;;12.98;;
64820;SDS011;51256;55.654;37.264;2022-11-23T06:58:32;41.58;;;14.55;;
64820;SDS011;51256;55.654;37.264;2022-11-23T07:01:02;32.17;;;12.93;;
64820;SDS011;51256;55.654;37.264;2022-11-23T07:03:32;40.40;;;15.15;;
64820;SDS011;51256;55.654;37.264;2022-11-23T07:06:02;31.85;;;13.20;;
64820;SDS011;51256;55.654;37.264;2022-11-23T07:08:31;31.95;;;13.02;;
64820;SDS011;51256;55.654;37.264;2022-11-23T07:11:01;30.80;;;13.02;;
64820;SDS011;51256;55.654;37.264;2022-11-23T07:13:27;41.60;;;13.98;;
64820;SDS011;51256;55.654;37.264;2022-11-23T07:15:53;42.63;;;14.18;;
64820;SDS011;51256;55.654;37.264;2022-11-23T07:18:18;33.03;;;13.05;;
64820;SDS011;51256;55.654;37.264;2022-11-23T07:20:44;28.02;;;12.50;;
64820;SDS011;51256;55.654;37.264;2022-11-23T07:23:09;30.90;;;11.48;;
64820;SDS011;51256;55.654;37.264;2022-11-23T07:25:36;17.83;;;8.25;;
64820;SDS011;51256;55.654;37.264;2022-11-23T07:28:03;26.60;;;11.50;;
64820;SDS011;51256;55.654;37.264;2022-11-23T07:30:31;23.65;;;10.68;;
64820;SDS011;51256;55.654;37.264;2022-11-23T07:32:58;17.95;;;8.40;;
64820;SDS011;51256;55.654;37.264;2022-11-23T07:35:28;17.67;;;7.88;;
64820;SDS011;51256;55.654;37.264;2022-11-23T07:37:54;19.00;;;9.05;;
64820;SDS011;51256;55.654;37.264;2022-11-23T07:40:19;15.82;;;7.82;;
64820;SDS011;51256;55.654;37.264;2022-11-23T07:42:45;20.92;;;7.60;;
64820;SDS011;51256;55.654;37.264;2022-11-23T07:45:11;14.45;;;7.15;;
64820;SDS011;51256;55.654;37.264;2022-11-23T07:47:36;16.17;;;7.00;;
64820;SDS011;51256;55.654;37.264;2022-11-23T07:50:03;14.70;;;6.93;;
64820;SDS011;51256;55.654;37.264;2022-11-23T07:52:34;12.95;;;6.05;;
64820;SDS011;51256;55.654;37.264;2022-11-23T07:55:00;14.10;;;6.50;;
64820;SDS011;51256;55.654;37.264;2022-11-23T07:57:25;15.85;;;7.90;;
64820;SDS011;51256;55.654;37.264;2022-11-23T07:59:51;10.52;;;5.00;;
64820;SDS011;51256;55.654;37.264;2022-11-23T08:02:17;17.73;;;7.03;;
64820;SDS011;51256;55.654;37.264;2022-11-23T08:04:43;13.52;;;6.40;;
64820;SDS011;51256;55.654;37.264;2022-11-23T08:07:08;15.93;;;7.57;;
64820;SDS011;51256;55.654;37.264;2022-11-23T08:09:34;13.27;;;7.07;;
64820;SDS011;51256;55.654;37.264;2022-11-23T08:11:59;15.75;;;7.55;;
64820;SDS011;51256;55.654;37.264;2022-11-23T08:14:25;17.88;;;8.02;;
64820;SDS011;51256;55.654;37.264;2022-11-23T08:16:50;13.43;;;5.75;;
64820;SDS011;51256;55.654;37.264;2022-11-23T08:19:16;16.58;;;7.18;;
64820;SDS011;51256;55.654;37.264;2022-11-23T08:21:42;16.20;;;7.38;;
64820;SDS011;51256;55.654;37.264;2022-11-23T08:24:08;19.25;;;8.35;;
64820;SDS011;51256;55.654;37.264;2022-11-23T08:26:34;18.90;;;8.60;;
64820;SDS011;51256;55.654;37.264;2022-11-23T08:28:59;19.40;;;7.85;;
64820;SDS011;51256;55.654;37.264;2022-11-23T08:31:25;28.90;;;12.88;;
64820;SDS011;51256;55.654;37.264;2022-11-23T08:33:50;19.70;;;8.88;;
64820;SDS011;51256;55.654;37.264;2022-11-23T08:36:16;27.90;;;9.93;;
64820;SDS011;51256;55.654;37.264;2022-11-23T08:38:41;20.23;;;8.52;;
64820;SDS011;51256;55.654;37.264;2022-11-23T08:41:07;18.23;;;7.10;;
64820;SDS011;51256;55.654;37.264;2022-11-23T08:43:33;25.48;;;9.00;;
64820;SDS011;51256;55.654;37.264;2022-11-23T08:46:00;23.05;;;9.02;;
64820;SDS011;51256;55.654;37.264;2022-11-23T08:48:26;20.67;;;9.18;;
64820;SDS011;51256;55.654;37.264;2022-11-23T08:50:52;20.38;;;7.28;;
64820;SDS011;51256;55.654;37.264;2022-11-23T08:53:18;14.77;;;6.80;;
64820;SDS011;51256;55.654;37.264;2022-11-23T08:55:44;17.67;;;7.35;;
64820;SDS011;51256;55.654;37.264;2022-11-23T08:58:09;14.25;;;6.03;;
64820;SDS011;51256;55.654;37.264;2022-11-23T09:00:35;13.55;;;6.07;;
64820;SDS011;51256;55.654;37.264;2022-11-23T09:03:01;13.70;;;5.65;;
64820;SDS011;51256;55.654;37.264;2022-11-23T09:05:27;15.63;;;6.20;;
64820;SDS011;51256;55.654;37.264;2022-11-23T09:07:54;19.67;;;8.30;;
64820;SDS011;51256;55.654;37.264;2022-11-23T09:10:20;19.73;;;7.70;;
64820;SDS011;51256;55.654;37.264;2022-11-23T09:12:46;23.23;;;8.43;;
64820;SDS011;51256;55.654;37.264;2022-11-23T09:15:12;22.15;;;7.95;;
64820;SDS011;51256;55.654;37.264;2022-11-23T09:17:38;24.55;;;8.77;;
64820;SDS011;51256;55.654;37.264;2022-11-23T09:20:03;22.52;;;8.63;;
64820;SDS011;51256;55.654;37.264;2022-11-23T09:22:30;18.25;;;8.35;;
64820;SDS011;51256;55.654;37.264;2022-11-23T09:24:55;17.77;;;7.50;;
64820;SDS011;51256;55.654;37.264;2022-11-23T09:27:21;17.05;;;7.35;;
64820;SDS011;51256;55.654;37.264;2022-11-23T09:29:46;21.00;;;8.55;;
64820;SDS011;51256;55.654;37.264;2022-11-23T09:32:12;18.63;;;8.15;;
64820;SDS011;51256;55.654;37.264;2022-11-23T09:34:37;24.33;;;10.55;;
64820;SDS011;51256;55.654;37.264;2022-11-23T09:37:03;24.00;;;11.15;;
64820;SDS011;51256;55.654;37.264;2022-11-23T09:39:28;28.83;;;11.73;;
64820;SDS011;51256;55.654;37.264;2022-11-23T09:42:00;22.70;;;10.45;;
64820;SDS011;51256;55.654;37.264;2022-11-23T09:50:22;19.08;;;8.48;;
64820;SDS011;51256;55.654;37.264;2022-11-23T09:52:52;18.48;;;8.55;;
64820;SDS011;51256;55.654;37.264;2022-11-23T09:55:26;19.48;;;8.70;;
64820;SDS011;51256;55.654;37.264;2022-11-23T09:58:04;21.70;;;10.18;;
64820;SDS011;51256;55.654;37.264;2022-11-23T10:00:34;18.35;;;9.13;;
64820;SDS011;51256;55.654;37.264;2022-11-23T10:03:02;14.77;;;8.55;;
64820;SDS011;51256;55.654;37.264;2022-11-23T10:05:30;19.80;;;9.45;;
64820;SDS011;51256;55.654;37.264;2022-11-23T10:18:46;16.42;;;8.13;;
64820;SDS011;51256;55.654;37.264;2022-11-23T10:24:28;18.33;;;8.70;;
64820;SDS011;51256;55.654;37.264;2022-11-23T10:26:57;16.17;;;8.45;;
64820;SDS011;51256;55.654;37.264;2022-11-23T10:29:30;33.08;;;12.45;;
64820;SDS011;51256;55.654;37.264;2022-11-23T10:31:57;17.25;;;8.52;;
64820;SDS011;51256;55.654;37.264;2022-11-23T10:37:20;16.73;;;8.85;;
64820;SDS011;51256;55.654;37.264;2022-11-23T10:39:45;19.02;;;9.45;;
64820;SDS011;51256;55.654;37.264;2022-11-23T10:42:25;17.30;;;10.15;;
64820;SDS011;51256;55.654;37.264;2022-11-23T10:44:53;16.80;;;9.18;;
64820;SDS011;51256;55.654;37.264;2022-11-23T10:55:30;20.77;;;11.07;;
64820;SDS011;51256;55.654;37.264;2022-11-23T10:57:58;24.05;;;11.73;;
64820;SDS011;51256;55.654;37.264;2022-11-23T11:00:24;18.98;;;10.77;;
64820;SDS011;51256;55.654;37.264;2022-11-23T11:02:53;17.05;;;8.80;;
64820;SDS011;51256;55.654;37.264;2022-11-23T11:08:02;17.15;;;9.10;;
64820;SDS011;51256;55.654;37.264;2022-11-23T11:13:25;18.15;;;8.30;;
64820;SDS011;51256;55.654;37.264;2022-11-23T11:15:55;17.13;;;9.60;;
64820;SDS011;51256;55.654;37.264;2022-11-23T11:18:23;21.10;;;8.82;;
64820;SDS011;51256;55.654;37.264;2022-11-23T11:20:55;20.95;;;8.95;;
64820;SDS011;51256;55.654;37.264;2022-11-23T11:23:22;10.60;;;5.93;;
64820;SDS011;51256;55.654;37.264;2022-11-23T11:25:48;20.02;;;7.57;;
64820;SDS011;51256;55.654;37.264;2022-11-23T11:33:56;26.60;;;9.50;;
64820;SDS011;51256;55.654;37.264;2022-11-23T11:36:31;22.60;;;9.07;;
64820;SDS011;51256;55.654;37.264;2022-11-23T11:39:09;17.33;;;8.38;;
64820;SDS011;51256;55.654;37.264;2022-11-23T11:41:42;19.98;;;9.02;;
64820;SDS011;51256;55.654;37.264;2022-11-23T11:44:21;15.90;;;7.68;;
64820;SDS011;51256;55.654;37.264;2022-11-23T11:46:56;16.77;;;7.80;;
64820;SDS011;51256;55.654;37.264;2022-11-23T11:49:32;24.75;;;12.80;;
64820;SDS011;51256;55.654;37.264;2022-11-23T11:52:08;21.77;;;10.77;;
64820;SDS011;51256;55.654;37.264;2022-11-23T11:57:54;23.02;;;12.65;;
64820;SDS011;51256;55.654;37.264;2022-11-23T12:00:26;22.40;;;13.00;;
64820;SDS011;51256;55.654;37.264;2022-11-23T12:06:04;16.80;;;9.35;;
64820;SDS011;51256;55.654;37.264;2022-11-23T12:11:31;16.58;;;8.80;;
64820;SDS011;51256;55.654;37.264;2022-11-23T12:14:00;18.33;;;9.68;;
64820;SDS011;51256;55.654;37.264;2022-11-23T12:27:18;16.85;;;8.85;;
64820;SDS011;51256;55.654;37.264;2022-11-23T12:30:19;17.20;;;8.27;;
64820;SDS011;51256;55.654;37.264;2022-11-23T12:47:09;20.08;;;9.98;;
64820;SDS011;51256;55.654;37.264;2022-11-23T12:49:50;21.05;;;7.90;;
64820;SDS011;51256;55.654;37.264;2022-11-23T12:52:25;19.55;;;10.25;;
64820;SDS011;51256;55.654;37.264;2022-11-23T12:55:01;20.08;;;7.80;;
64820;SDS011;51256;55.654;37.264;2022-11-23T13:00:24;11.20;;;4.95;;
64820;SDS011;51256;55.654;37.264;2022-11-23T13:05:59;12.52;;;5.65;;
64820;SDS011;51256;55.654;37.264;2022-11-23T13:08:59;12.93;;;6.72;;
64820;SDS011;51256;55.654;37.264;2022-11-23T13:11:53;15.23;;;6.13;;
64820;SDS011;51256;55.654;37.264;2022-11-23T13:22:46;18.65;;;9.77;;
64820;SDS011;51256;55.654;37.264;2022-11-23T13:32:52;16.85;;;7.53;;
64820;SDS011;51256;55.654;37.264;2022-11-23T13:40:20;16.60;;;6.75;;
64820;SDS011;51256;55.654;37.264;2022-11-23T13:43:18;16.48;;;6.45;;
64820;SDS011;51256;55.654;37.264;2022-11-23T13:48:58;22.48;;;8.98;;
64820;SDS011;51256;55.654;37.264;2022-11-23T13:51:31;17.38;;;7.55;;
64820;SDS011;51256;55.654;37.264;2022-11-23T13:54:14;15.10;;;7.50;;
64820;SDS011;51256;55.654;37.264;2022-11-23T13:56:45;13.20;;;7.70;;
64820;SDS011;51256;55.654;37.264;2022-11-23T14:01:59;19.98;;;11.02;;
64820;SDS011;51256;55.654;37.264;2022-11-23T14:04:40;13.43;;;8.15;;
64820;SDS011;51256;55.654;37.264;2022-11-23T14:07:14;13.35;;;7.95;;
64820;SDS011;51256;55.654;37.264;2022-11-23T14:20:35;12.82;;;5.75;;
64820;SDS011;51256;55.654;37.264;2022-11-23T14:34:24;16.67;;;6.20;;
64820;SDS011;51256;55.654;37.264;2022-11-23T14:39:55;15.55;;;5.70;;
64820;SDS011;51256;55.654;37.264;2022-11-23T14:44:52;11.95;;;6.13;;
64820;SDS011;51256;55.654;37.264;2022-11-23T14:47:29;12.77;;;5.28;;
64820;SDS011;51256;55.654;37.264;2022-11-23T14:49:56;17.75;;;10.57;;
64820;SDS011;51256;55.654;37.264;2022-11-23T14:52:23;20.73;;;8.60;;
64820;SDS011;51256;55.654;37.264;2022-11-23T14:54:53;11.70;;;5.85;;
64820;SDS011;51256;55.654;37.264;2022-11-23T14:57:21;13.85;;;5.15;;
64820;SDS011;51256;55.654;37.264;2022-11-23T15:00:36;10.13;;;4.97;;
64820;SDS011;51256;55.654;37.264;2022-11-23T15:02:58;14.05;;;8.10;;
64820;SDS011;51256;55.654;37.264;2022-11-23T15:05:31;18.60;;;9.90;;
64820;SDS011;51256;55.654;37.264;2022-11-23T15:08:02;13.80;;;7.07;;
64820;SDS011;51256;55.654;37.264;2022-11-23T15:10:32;11.43;;;4.47;;
64820;SDS011;51256;55.654;37.264;2022-11-23T15:12:58;14.80;;;5.78;;
64820;SDS011;51256;55.654;37.264;2022-11-23T15:15:25;13.32;;;4.78;;
64820;SDS011;51256;55.654;37.264;2022-11-23T15:20:29;18.10;;;6.32;;
64820;SDS011;51256;55.654;37.264;2022-11-23T15:23:00;15.70;;;6.82;;
64820;SDS011;51256;55.654;37.264;2022-11-23T15:25:27;10.48;;;6.10;;
64820;SDS011;51256;55.654;37.264;2022-11-23T15:27:54;10.73;;;5.10;;
64820;SDS011;51256;55.654;37.264;2022-11-23T15:30:20;12.80;;;5.80;;
64820;SDS011;51256;55.654;37.264;2022-11-23T15:35:22;7.03;;;4.25;;
64820;SDS011;51256;55.654;37.264;2022-11-23T15:37:55;7.55;;;3.60;;
64820;SDS011;51256;55.654;37.264;2022-11-23T15:40:22;10.82;;;4.30;;
64820;SDS011;51256;55.654;37.264;2022-11-23T15:42:51;11.67;;;5.43;;
64820;SDS011;51256;55.654;37.264;2022-11-23T15:48:04;9.73;;;5.25;;
64820;SDS011;51256;55.654;37.264;2022-11-23T15:50:45;11.98;;;5.50;;
64820;SDS011;51256;55.654;37.264;2022-11-23T15:53:18;13.77;;;5.45;;
64820;SDS011;51256;55.654;37.264;2022-11-23T15:55:45;10.82;;;4.60;;
64820;SDS011;51256;55.654;37.264;2022-11-23T15:58:18;18.52;;;8.73;;
64820;SDS011;51256;55.654;37.264;2022-11-23T16:00:45;12.25;;;5.90;;
64820;SDS011;51256;55.654;37.264;2022-11-23T16:04:00;9.50;;;5.43;;
64820;SDS011;51256;55.654;37.264;2022-11-23T16:06:15;12.15;;;5.05;;
64820;SDS011;51256;55.654;37.264;2022-11-23T16:08:42;11.45;;;6.18;;
64820;SDS011;51256;55.654;37.264;2022-11-23T16:11:20;14.20;;;6.22;;
64820;SDS011;51256;55.654;37.264;2022-11-23T16:14:16;11.93;;;5.70;;
64820;SDS011;51256;55.654;37.264;2022-11-23T16:16:45;13.13;;;6.60;;
64820;SDS011;51256;55.654;37.264;2022-11-23T16:19:23;23.10;;;9.15;;
64820;SDS011;51256;55.654;37.264;2022-11-23T16:21:53;18.02;;;7.70;;
64820;SDS011;51256;55.654;37.264;2022-11-23T16:24:22;22.13;;;8.98;;
64820;SDS011;51256;55.654;37.264;2022-11-23T16:26:49;29.17;;;11.98;;
64820;SDS011;51256;55.654;37.264;2022-11-23T16:29:19;20.83;;;7.70;;
64820;SDS011;51256;55.654;37.264;2022-11-23T16:31:53;23.42;;;9.20;;
64820;SDS011;51256;55.654;37.264;2022-11-23T16:34:21;28.80;;;9.35;;
64820;SDS011;51256;55.654;37.264;2022-11-23T16:36:47;19.40;;;9.05;;
64820;SDS011;51256;55.654;37.264;2022-11-23T16:39:13;23.00;;;10.80;;
64820;SDS011;51256;55.654;37.264;2022-11-23T16:41:38;20.08;;;11.27;;
64820;SDS011;51256;55.654;37.264;2022-11-23T16:44:04;16.33;;;6.95;;
64820;SDS011;51256;55.654;37.264;2022-11-23T16:46:33;13.38;;;6.32;;
64820;SDS011;51256;55.654;37.264;2022-11-23T16:48:58;13.32;;;6.28;;
64820;SDS011;51256;55.654;37.264;2022-11-23T16:51:24;16.35;;;6.60;;
64820;SDS011;51256;55.654;37.264;2022-11-23T16:53:50;12.15;;;7.03;;
64820;SDS011;51256;55.654;37.264;2022-11-23T16:56:19;13.82;;;7.53;;
64820;SDS011;51256;55.654;37.264;2022-11-23T16:58:49;14.18;;;7.40;;